Rexburg, ID

1:17 AM MDT on March 27, 2017 (GMT -0600)
Rexburg-Madison County | | Change Station

Elev 4859 ft 43.83 °N, 111.81 °W | Updated 24 minutes ago

Ice Pellets
Ice Pellets
38 °F
Feels Like 33 °F
N
7
Wind Variable Wind from South

Today
High -- | Low -- °F
--% Chance of Precip.
Yesterday
High -- | Low -- °F
Precip. -- in
Pressure 29.91 in
Visibility 10.0 miles
Clouds Mostly Cloudy 1900 ft
Overcast 2700 ft
Windchill 33 °F
Dew Point 36 °F
Humidity 93%
Rainfall 0.01 in
Snow Depth Not available.
7:17 AM 7:48 PM
Waning Crescent, 1% visible
METAR KRXE 270653Z AUTO 18006KT 10SM -RA BKN019 OVC027 03/02 A2991 RMK AO2 SLP129 P0001 T00330022 401001011 $
Pressure 29.91 in
Visibility 10.0 miles
Clouds Mostly Cloudy 1900 ft
Overcast 2700 ft
Windchill 33 °F
Dew Point 36 °F
Humidity 93%
Rainfall 0.01 in
Snow Depth Not available.
7:17 AM 7:48 PM
Waning Crescent, 1% visible
METAR KRXE 270653Z AUTO 18006KT 10SM -RA BKN019 OVC027 03/02 A2991 RMK AO2 SLP129 P0001 T00330022 401001011 $

Get Severe Weather Alerts

Thanks for signing up!

Be on the lookout for a verification email in your inbox.

You'll start receiving the daily forecast at 8 AM.

×

10-Day Weather Forecast

Almanac

Astronomy

Mar. 27, 2017 Rise Set
Actual Time
Civil Twilight
Nautical Twilight
Astronomical Twilight
Moon
Length of Visible Light
Length of Day
Tomorrow will be .
, % of the Moon is Illuminated

Today's Extremes

State Highs State Lows

Community

WunderPhotos

Upload Photos

1,962,540 photos uploaded!

WunderBlog® & News

Nearby

Air Quality

  Air Quality AQ Index Pollutant
Not available.

Snow Depth

Station Depth Elevation

Earthquake Activity

City Distance Mag. Time & Date
Minimum magnitude displayed is 2.5.

Earthquake Activity

City Distance Mag. Time & Date
Minimum magnitude displayed is 2.5.

Coastal Water Temperatures

Place Temperature

Stations

Nearby Weather Stations

Station Location Temp. Windchill Dew Point Humidity Wind Precip. Elev Updated Type
                   

Watches & Warnings

There are currently no watches in effect.